sensor_id;sensor_type;location;lat;lon;timestamp;pressure;altitude;pressure_sealevel;temperature;humidity
19286;BME280;9776;50.798;6.430;2023-03-19T00:01:25;99775.84;;;13.21;57.98
19286;BME280;9776;50.798;6.430;2023-03-19T00:03:53;99771.72;;;13.18;57.94
19286;BME280;9776;50.798;6.430;2023-03-19T00:06:20;99771.06;;;13.16;58.00
19286;BME280;9776;50.798;6.430;2023-03-19T00:08:47;99773.91;;;13.15;58.14
19286;BME280;9776;50.798;6.430;2023-03-19T00:11:13;99771.25;;;13.15;57.96
19286;BME280;9776;50.798;6.430;2023-03-19T00:13:40;99773.44;;;13.11;58.20
19286;BME280;9776;50.798;6.430;2023-03-19T00:16:08;99773.63;;;13.10;58.28
19286;BME280;9776;50.798;6.430;2023-03-19T00:18:35;99771.47;;;13.05;58.27
19286;BME280;9776;50.798;6.430;2023-03-19T00:21:02;99779.13;;;13.00;58.59
19286;BME280;9776;50.798;6.430;2023-03-19T00:23:28;99779.00;;;12.93;58.54
19286;BME280;9776;50.798;6.430;2023-03-19T00:25:55;99775.91;;;12.90;58.61
19286;BME280;9776;50.798;6.430;2023-03-19T00:28:22;99777.25;;;12.86;58.54
19286;BME280;9776;50.798;6.430;2023-03-19T00:30:48;99773.78;;;12.85;58.55
19286;BME280;9776;50.798;6.430;2023-03-19T00:33:16;99770.03;;;12.80;58.92
19286;BME280;9776;50.798;6.430;2023-03-19T00:35:44;99774.84;;;12.76;58.81
19286;BME280;9776;50.798;6.430;2023-03-19T00:38:11;99769.44;;;12.70;58.78
19286;BME280;9776;50.798;6.430;2023-03-19T00:40:38;99769.31;;;12.63;59.10
19286;BME280;9776;50.798;6.430;2023-03-19T00:43:05;99769.03;;;12.58;59.15
19286;BME280;9776;50.798;6.430;2023-03-19T00:45:32;99780.13;;;12.53;59.09
19286;BME280;9776;50.798;6.430;2023-03-19T00:47:58;99773.91;;;12.46;59.16
19286;BME280;9776;50.798;6.430;2023-03-19T00:50:26;99774.91;;;12.45;59.33
19286;BME280;9776;50.798;6.430;2023-03-19T00:52:53;99776.22;;;12.41;59.40
19286;BME280;9776;50.798;6.430;2023-03-19T00:55:20;99763.19;;;12.40;59.54
19286;BME280;9776;50.798;6.430;2023-03-19T00:57:46;99770.50;;;12.38;59.47
19286;BME280;9776;50.798;6.430;2023-03-19T01:02:40;99767.69;;;12.31;59.48
19286;BME280;9776;50.798;6.430;2023-03-19T01:05:07;99767.22;;;12.28;59.75
19286;BME280;9776;50.798;6.430;2023-03-19T01:07:36;99779.13;;;12.24;59.85
19286;BME280;9776;50.798;6.430;2023-03-19T01:10:03;99771.72;;;12.19;59.96
19286;BME280;9776;50.798;6.430;2023-03-19T01:12:29;99775.03;;;12.21;59.87
19286;BME280;9776;50.798;6.430;2023-03-19T01:14:56;99779.66;;;12.19;59.80
19286;BME280;9776;50.798;6.430;2023-03-19T01:17:23;99779.84;;;12.18;59.82
19286;BME280;9776;50.798;6.430;2023-03-19T01:19:49;99779.19;;;12.16;59.90
19286;BME280;9776;50.798;6.430;2023-03-19T01:22:16;99776.19;;;12.19;59.79
19286;BME280;9776;50.798;6.430;2023-03-19T01:24:44;99770.56;;;12.22;59.85
19286;BME280;9776;50.798;6.430;2023-03-19T01:27:12;99773.50;;;12.27;60.06
19286;BME280;9776;50.798;6.430;2023-03-19T01:29:38;99773.81;;;12.32;59.97
19286;BME280;9776;50.798;6.430;2023-03-19T01:32:05;99767.00;;;12.37;59.93
19286;BME280;9776;50.798;6.430;2023-03-19T01:34:32;99760.34;;;12.41;59.78
19286;BME280;9776;50.798;6.430;2023-03-19T01:36:59;99772.72;;;12.49;59.95
19286;BME280;9776;50.798;6.430;2023-03-19T01:39:26;99769.19;;;12.57;59.94
19286;BME280;9776;50.798;6.430;2023-03-19T01:42:02;99773.16;;;12.61;59.69
19286;BME280;9776;50.798;6.430;2023-03-19T01:44:31;99773.59;;;12.64;59.96
19286;BME280;9776;50.798;6.430;2023-03-19T01:47:00;99768.78;;;12.68;59.66
19286;BME280;9776;50.798;6.430;2023-03-19T01:49:29;99764.59;;;12.73;59.86
19286;BME280;9776;50.798;6.430;2023-03-19T01:51:57;99761.13;;;12.73;59.86
19286;BME280;9776;50.798;6.430;2023-03-19T01:54:26;99758.31;;;12.74;59.69
19286;BME280;9776;50.798;6.430;2023-03-19T01:56:59;99757.13;;;12.77;59.78
19286;BME280;9776;50.798;6.430;2023-03-19T01:59:30;99764.25;;;12.76;60.07
19286;BME280;9776;50.798;6.430;2023-03-19T02:02:02;99763.41;;;12.76;60.07
19286;BME280;9776;50.798;6.430;2023-03-19T02:04:33;99763.63;;;12.74;59.99
19286;BME280;9776;50.798;6.430;2023-03-19T02:07:01;99757.31;;;12.75;60.01
19286;BME280;9776;50.798;6.430;2023-03-19T02:09:29;99766.06;;;12.76;60.08
19286;BME280;9776;50.798;6.430;2023-03-19T02:11:58;99763.41;;;12.76;60.04
19286;BME280;9776;50.798;6.430;2023-03-19T02:14:26;99767.91;;;12.75;60.11
19286;BME280;9776;50.798;6.430;2023-03-19T02:16:54;99769.75;;;12.75;60.35
19286;BME280;9776;50.798;6.430;2023-03-19T02:19:27;99770.38;;;12.77;60.09
19286;BME280;9776;50.798;6.430;2023-03-19T02:21:58;99763.06;;;12.79;60.13
19286;BME280;9776;50.798;6.430;2023-03-19T02:24:31;99761.09;;;12.81;60.04
19286;BME280;9776;50.798;6.430;2023-03-19T02:27:01;99756.59;;;12.81;60.15
19286;BME280;9776;50.798;6.430;2023-03-19T02:29:28;99762.72;;;12.82;60.29
19286;BME280;9776;50.798;6.430;2023-03-19T02:31:54;99757.41;;;12.82;60.06
19286;BME280;9776;50.798;6.430;2023-03-19T02:34:36;99757.31;;;12.75;60.01
19286;BME280;9776;50.798;6.430;2023-03-19T02:37:08;99762.84;;;12.66;60.72
19286;BME280;9776;50.798;6.430;2023-03-19T02:39:43;99757.91;;;12.63;60.64
19286;BME280;9776;50.798;6.430;2023-03-19T02:42:14;99758.06;;;12.61;60.70
19286;BME280;9776;50.798;6.430;2023-03-19T02:44:41;99756.59;;;12.59;60.57
19286;BME280;9776;50.798;6.430;2023-03-19T02:47:08;99752.19;;;12.51;60.88
19286;BME280;9776;50.798;6.430;2023-03-19T02:49:34;99759.31;;;12.50;60.68
19286;BME280;9776;50.798;6.430;2023-03-19T02:52:01;99754.34;;;12.47;60.85
19286;BME280;9776;50.798;6.430;2023-03-19T02:54:28;99760.00;;;12.44;61.05
19286;BME280;9776;50.798;6.430;2023-03-19T02:56:54;99757.91;;;12.40;60.78
19286;BME280;9776;50.798;6.430;2023-03-19T02:59:23;99757.41;;;12.36;60.97
19286;BME280;9776;50.798;6.430;2023-03-19T03:01:49;99757.59;;;12.35;60.92
19286;BME280;9776;50.798;6.430;2023-03-19T03:04:16;99767.16;;;12.36;60.80
19286;BME280;9776;50.798;6.430;2023-03-19T03:06:43;99766.00;;;12.38;60.92
19286;BME280;9776;50.798;6.430;2023-03-19T03:09:16;99766.69;;;12.32;61.13
19286;BME280;9776;50.798;6.430;2023-03-19T03:11:42;99765.22;;;12.30;61.09
19286;BME280;9776;50.798;6.430;2023-03-19T03:14:09;99764.91;;;12.25;61.09
19286;BME280;9776;50.798;6.430;2023-03-19T03:16:38;99764.44;;;12.21;61.32
19286;BME280;9776;50.798;6.430;2023-03-19T03:19:05;99771.44;;;12.14;61.22
19286;BME280;9776;50.798;6.430;2023-03-19T03:21:32;99773.44;;;12.04;61.53
19286;BME280;9776;50.798;6.430;2023-03-19T03:23:58;99780.44;;;11.97;61.83
19286;BME280;9776;50.798;6.430;2023-03-19T03:26:25;99779.47;;;11.90;62.11
19286;BME280;9776;50.798;6.430;2023-03-19T03:28:52;99770.88;;;11.88;62.11
19286;BME280;9776;50.798;6.430;2023-03-19T03:31:19;99771.38;;;11.83;62.29
19286;BME280;9776;50.798;6.430;2023-03-19T03:33:47;99786.09;;;11.78;62.46
19286;BME280;9776;50.798;6.430;2023-03-19T03:36:14;99793.25;;;11.77;62.31
19286;BME280;9776;50.798;6.430;2023-03-19T03:38:41;99793.06;;;11.79;62.45
19286;BME280;9776;50.798;6.430;2023-03-19T03:41:09;99784.28;;;11.78;62.35
19286;BME280;9776;50.798;6.430;2023-03-19T03:43:36;99788.75;;;11.78;62.35
19286;BME280;9776;50.798;6.430;2023-03-19T03:46:03;99780.34;;;11.74;62.50
19286;BME280;9776;50.798;6.430;2023-03-19T03:48:31;99777.53;;;11.76;62.45
19286;BME280;9776;50.798;6.430;2023-03-19T03:50:59;99774.84;;;11.84;62.25
19286;BME280;9776;50.798;6.430;2023-03-19T03:53:27;99772.22;;;11.84;62.46
19286;BME280;9776;50.798;6.430;2023-03-19T03:55:54;99782.13;;;11.82;62.55
19286;BME280;9776;50.798;6.430;2023-03-19T03:58:20;99777.19;;;11.79;62.57
19286;BME280;9776;50.798;6.430;2023-03-19T04:00:48;99782.13;;;11.82;62.56
19286;BME280;9776;50.798;6.430;2023-03-19T04:03:14;99785.44;;;11.84;62.62
19286;BME280;9776;50.798;6.430;2023-03-19T04:05:42;99787.41;;;11.90;62.79
19286;BME280;9776;50.798;6.430;2023-03-19T04:08:10;99784.41;;;11.93;62.67
19286;BME280;9776;50.798;6.430;2023-03-19T04:10:38;99791.03;;;11.97;62.60
19286;BME280;9776;50.798;6.430;2023-03-19T04:13:06;99798.28;;;11.95;62.65
19286;BME280;9776;50.798;6.430;2023-03-19T04:15:33;99799.63;;;11.91;62.72
19286;BME280;9776;50.798;6.430;2023-03-19T04:18:00;99798.31;;;11.87;62.75
19286;BME280;9776;50.798;6.430;2023-03-19T04:20:28;99799.47;;;11.84;63.01
19286;BME280;9776;50.798;6.430;2023-03-19T04:22:54;99795.69;;;11.79;63.12
19286;BME280;9776;50.798;6.430;2023-03-19T04:25:22;99801.50;;;11.74;63.15
19286;BME280;9776;50.798;6.430;2023-03-19T04:27:49;99803.31;;;11.74;63.33
19286;BME280;9776;50.798;6.430;2023-03-19T04:30:16;99801.00;;;11.71;63.42
19286;BME280;9776;50.798;6.430;2023-03-19T04:32:43;99805.47;;;11.70;63.38
19286;BME280;9776;50.798;6.430;2023-03-19T04:35:10;99803.47;;;11.72;63.35
19286;BME280;9776;50.798;6.430;2023-03-19T04:37:38;99807.44;;;11.68;63.55
19286;BME280;9776;50.798;6.430;2023-03-19T04:40:05;99815.53;;;11.67;63.53
19286;BME280;9776;50.798;6.430;2023-03-19T04:42:33;99814.53;;;11.68;63.60
19286;BME280;9776;50.798;6.430;2023-03-19T04:45:00;99810.56;;;11.72;63.59
19286;BME280;9776;50.798;6.430;2023-03-19T04:47:27;99810.72;;;11.78;63.46
19286;BME280;9776;50.798;6.430;2023-03-19T04:49:53;99809.22;;;11.84;63.49
19286;BME280;9776;50.798;6.430;2023-03-19T04:52:20;99808.72;;;11.88;63.26
19286;BME280;9776;50.798;6.430;2023-03-19T04:54:47;99805.22;;;11.96;63.41
19286;BME280;9776;50.798;6.430;2023-03-19T04:57:14;99806.34;;;12.02;63.21
19286;BME280;9776;50.798;6.430;2023-03-19T04:59:42;99805.38;;;12.03;63.23
19286;BME280;9776;50.798;6.430;2023-03-19T05:02:09;99819.09;;;12.06;63.36
19286;BME280;9776;50.798;6.430;2023-03-19T05:04:36;99820.72;;;12.07;63.48
19286;BME280;9776;50.798;6.430;2023-03-19T05:07:02;99816.75;;;12.11;63.50
19286;BME280;9776;50.798;6.430;2023-03-19T05:09:29;99817.09;;;12.08;63.37
19286;BME280;9776;50.798;6.430;2023-03-19T05:11:56;99817.72;;;12.10;63.59
19286;BME280;9776;50.798;6.430;2023-03-19T05:14:23;99824.69;;;12.11;63.60
19286;BME280;9776;50.798;6.430;2023-03-19T05:16:51;99819.38;;;12.11;63.54
19286;BME280;9776;50.798;6.430;2023-03-19T05:19:18;99821.84;;;12.13;63.96
19286;BME280;9776;50.798;6.430;2023-03-19T05:21:45;99822.88;;;12.12;63.95
19286;BME280;9776;50.798;6.430;2023-03-19T05:24:12;99820.69;;;12.15;63.80
19286;BME280;9776;50.798;6.430;2023-03-19T05:26:39;99809.13;;;12.16;64.10
19286;BME280;9776;50.798;6.430;2023-03-19T05:29:05;99821.16;;;12.19;64.01
19286;BME280;9776;50.798;6.430;2023-03-19T05:31:35;99824.16;;;12.16;64.11
19286;BME280;9776;50.798;6.430;2023-03-19T05:34:03;99820.22;;;12.12;64.35
19286;BME280;9776;50.798;6.430;2023-03-19T05:36:30;99830.31;;;12.08;64.35
19286;BME280;9776;50.798;6.430;2023-03-19T05:38:56;99829.81;;;12.05;64.57
19286;BME280;9776;50.798;6.430;2023-03-19T05:41:23;99829.66;;;12.06;64.65
19286;BME280;9776;50.798;6.430;2023-03-19T05:43:50;99833.13;;;12.07;64.59
19286;BME280;9776;50.798;6.430;2023-03-19T05:46:17;99834.13;;;12.06;64.83
19286;BME280;9776;50.798;6.430;2023-03-19T05:48:44;99835.31;;;12.03;64.93
19286;BME280;9776;50.798;6.430;2023-03-19T05:51:12;99846.69;;;12.04;64.82
19286;BME280;9776;50.798;6.430;2023-03-19T05:53:38;99841.56;;;12.02;65.03
19286;BME280;9776;50.798;6.430;2023-03-19T05:56:05;99851.47;;;12.08;64.99
19286;BME280;9776;50.798;6.430;2023-03-19T05:58:32;99847.34;;;12.06;64.96
19286;BME280;9776;50.798;6.430;2023-03-19T06:00:59;99854.28;;;12.07;65.09
19286;BME280;9776;50.798;6.430;2023-03-19T06:03:26;99856.78;;;12.08;65.25
19286;BME280;9776;50.798;6.430;2023-03-19T06:05:52;99851.13;;;12.11;65.27
19286;BME280;9776;50.798;6.430;2023-03-19T06:08:20;99847.81;;;12.17;65.05
19286;BME280;9776;50.798;6.430;2023-03-19T06:10:47;99852.75;;;12.20;65.02
19286;BME280;9776;50.798;6.430;2023-03-19T06:13:14;99862.19;;;12.23;65.07
19286;BME280;9776;50.798;6.430;2023-03-19T06:15:41;99868.75;;;12.27;65.02
19286;BME280;9776;50.798;6.430;2023-03-19T06:18:07;99867.97;;;12.26;65.25
19286;BME280;9776;50.798;6.430;2023-03-19T06:20:34;99865.13;;;12.28;65.15
19286;BME280;9776;50.798;6.430;2023-03-19T06:23:01;99861.66;;;12.27;65.44
19286;BME280;9776;50.798;6.430;2023-03-19T06:25:29;99861.78;;;12.34;65.28
19286;BME280;9776;50.798;6.430;2023-03-19T06:27:55;99857.34;;;12.34;65.30
19286;BME280;9776;50.798;6.430;2023-03-19T06:30:22;99876.19;;;12.31;65.27
19286;BME280;9776;50.798;6.430;2023-03-19T06:32:49;99873.56;;;12.31;65.49
19286;BME280;9776;50.798;6.430;2023-03-19T06:35:16;99876.19;;;12.31;65.45
19286;BME280;9776;50.798;6.430;2023-03-19T06:37:42;99872.53;;;12.32;65.56
19286;BME280;9776;50.798;6.430;2023-03-19T06:40:10;99874.19;;;12.33;65.57
19286;BME280;9776;50.798;6.430;2023-03-19T06:42:38;99880.81;;;12.37;65.29
19286;BME280;9776;50.798;6.430;2023-03-19T06:45:06;99880.47;;;12.40;65.37
19286;BME280;9776;50.798;6.430;2023-03-19T06:47:32;99885.41;;;12.43;65.46
19286;BME280;9776;50.798;6.430;2023-03-19T06:49:59;99890.38;;;12.46;65.35
19286;BME280;9776;50.798;6.430;2023-03-19T06:52:26;99883.56;;;12.52;65.18
19286;BME280;9776;50.798;6.430;2023-03-19T06:54:52;99885.53;;;12.58;65.14
19286;BME280;9776;50.798;6.430;2023-03-19T06:57:19;99881.81;;;12.67;64.96
19286;BME280;9776;50.798;6.430;2023-03-19T06:59:47;99878.94;;;12.77;64.38
19286;BME280;9776;50.798;6.430;2023-03-19T07:02:14;99889.34;;;12.86;64.45
19286;BME280;9776;50.798;6.430;2023-03-19T07:04:41;99893.88;;;13.00;64.11
19286;BME280;9776;50.798;6.430;2023-03-19T07:07:08;99900.56;;;13.19;63.83
19286;BME280;9776;50.798;6.430;2023-03-19T07:09:34;99906.03;;;13.40;63.07
19286;BME280;9776;50.798;6.430;2023-03-19T07:12:01;99910.56;;;13.54;62.81
19286;BME280;9776;50.798;6.430;2023-03-19T07:14:28;99910.25;;;13.72;62.46
19286;BME280;9776;50.798;6.430;2023-03-19T07:16:56;99911.94;;;13.88;62.02
19286;BME280;9776;50.798;6.430;2023-03-19T07:19:22;99915.25;;;14.04;61.52
19286;BME280;9776;50.798;6.430;2023-03-19T07:21:50;99912.34;;;14.14;61.08
19286;BME280;9776;50.798;6.430;2023-03-19T07:24:16;99914.59;;;14.17;61.03
19286;BME280;9776;50.798;6.430;2023-03-19T07:26:43;99919.34;;;14.07;61.46
19286;BME280;9776;50.798;6.430;2023-03-19T07:29:10;99929.97;;;14.07;61.31
19286;BME280;9776;50.798;6.430;2023-03-19T07:31:37;99930.44;;;14.10;61.18
19286;BME280;9776;50.798;6.430;2023-03-19T07:34:05;99939.16;;;14.19;61.12
19286;BME280;9776;50.798;6.430;2023-03-19T07:36:32;99938.47;;;14.17;61.05
19286;BME280;9776;50.798;6.430;2023-03-19T07:38:59;99934.84;;;14.18;60.93
19286;BME280;9776;50.798;6.430;2023-03-19T07:41:25;99937.94;;;14.21;60.75
19286;BME280;9776;50.798;6.430;2023-03-19T07:43:52;99939.25;;;14.26;60.60
19286;BME280;9776;50.798;6.430;2023-03-19T07:46:18;99932.06;;;14.34;60.48
19286;BME280;9776;50.798;6.430;2023-03-19T07:48:45;99934.03;;;14.47;60.06
19286;BME280;9776;50.798;6.430;2023-03-19T07:51:13;99934.66;;;14.63;59.70
19286;BME280;9776;50.798;6.430;2023-03-19T07:53:40;99933.56;;;14.72;59.39
19286;BME280;9776;50.798;6.430;2023-03-19T07:56:07;99936.88;;;14.74;59.25
19286;BME280;9776;50.798;6.430;2023-03-19T07:58:33;99927.25;;;14.73;59.38
19286;BME280;9776;50.798;6.430;2023-03-19T08:01:00;99931.63;;;14.81;59.14
19286;BME280;9776;50.798;6.430;2023-03-19T08:03:26;99931.44;;;14.83;58.99
19286;BME280;9776;50.798;6.430;2023-03-19T08:05:53;99937.28;;;14.93;58.49
19286;BME280;9776;50.798;6.430;2023-03-19T08:08:21;99935.16;;;15.03;58.36
19286;BME280;9776;50.798;6.430;2023-03-19T08:10:48;99944.22;;;15.08;58.27
19286;BME280;9776;50.798;6.430;2023-03-19T08:13:15;99946.59;;;15.18;57.91
19286;BME280;9776;50.798;6.430;2023-03-19T08:15:41;99936.78;;;15.40;57.52
19286;BME280;9776;50.798;6.430;2023-03-19T08:18:08;99945.03;;;15.66;56.76
19286;BME280;9776;50.798;6.430;2023-03-19T08:20:35;99946.56;;;15.81;56.37
19286;BME280;9776;50.798;6.430;2023-03-19T08:23:01;99944.22;;;15.93;55.97
19286;BME280;9776;50.798;6.430;2023-03-19T08:25:29;99956.09;;;16.18;55.29
19286;BME280;9776;50.798;6.430;2023-03-19T08:27:56;99968.16;;;16.48;54.52
19286;BME280;9776;50.798;6.430;2023-03-19T08:30:23;99959.75;;;16.79;53.70
19286;BME280;9776;50.798;6.430;2023-03-19T08:32:50;99960.28;;;17.09;53.38
19286;BME280;9776;50.798;6.430;2023-03-19T08:35:17;99963.97;;;17.15;53.14
19286;BME280;9776;50.798;6.430;2023-03-19T08:37:45;99961.94;;;17.17;53.08
19286;BME280;9776;50.798;6.430;2023-03-19T08:40:12;99963.56;;;17.11;53.06
19286;BME280;9776;50.798;6.430;2023-03-19T08:42:40;99964.16;;;17.07;52.90
19286;BME280;9776;50.798;6.430;2023-03-19T08:45:08;99964.88;;;16.81;52.97
19286;BME280;9776;50.798;6.430;2023-03-19T08:47:35;99968.41;;;16.88;52.73
19286;BME280;9776;50.798;6.430;2023-03-19T08:50:02;99968.91;;;17.18;52.03
19286;BME280;9776;50.798;6.430;2023-03-19T08:52:29;99966.03;;;17.13;51.92
19286;BME280;9776;50.798;6.430;2023-03-19T08:54:55;99960.59;;;16.86;52.23
19286;BME280;9776;50.798;6.430;2023-03-19T08:57:22;99960.41;;;16.94;52.26
19286;BME280;9776;50.798;6.430;2023-03-19T08:59:51;99959.31;;;17.30;51.42
19286;BME280;9776;50.798;6.430;2023-03-19T09:02:18;99960.34;;;17.35;51.21
19286;BME280;9776;50.798;6.430;2023-03-19T09:04:44;99958.84;;;17.13;51.38
19286;BME280;9776;50.798;6.430;2023-03-19T09:07:11;99964.81;;;17.15;51.46
19286;BME280;9776;50.798;6.430;2023-03-19T09:09:40;99967.72;;;17.27;51.31
19286;BME280;9776;50.798;6.430;2023-03-19T09:12:09;99970.50;;;17.79;49.93
19286;BME280;9776;50.798;6.430;2023-03-19T09:14:36;99967.84;;;18.05;49.26
19286;BME280;9776;50.798;6.430;2023-03-19T09:17:05;99967.41;;;17.95;49.63
19286;BME280;9776;50.798;6.430;2023-03-19T09:19:32;99971.84;;;17.36;50.52
19286;BME280;9776;50.798;6.430;2023-03-19T09:21:59;99970.94;;;17.02;51.57
19286;BME280;9776;50.798;6.430;2023-03-19T09:24:26;99982.25;;;16.70;52.23
19286;BME280;9776;50.798;6.430;2023-03-19T09:26:52;99977.94;;;16.69;52.33
19286;BME280;9776;50.798;6.430;2023-03-19T09:29:19;99980.38;;;16.64;52.66
19286;BME280;9776;50.798;6.430;2023-03-19T09:31:46;99981.00;;;16.66;52.17
19286;BME280;9776;50.798;6.430;2023-03-19T09:34:14;99984.34;;;16.47;52.51
19286;BME280;9776;50.798;6.430;2023-03-19T09:36:41;99986.91;;;16.34;52.73
19286;BME280;9776;50.798;6.430;2023-03-19T09:39:08;99980.75;;;16.27;52.85
19286;BME280;9776;50.798;6.430;2023-03-19T09:41:39;99986.25;;;16.25;52.88
19286;BME280;9776;50.798;6.430;2023-03-19T09:44:14;99989.38;;;16.08;53.33
19286;BME280;9776;50.798;6.430;2023-03-19T09:46:44;99997.28;;;15.95;53.68
19286;BME280;9776;50.798;6.430;2023-03-19T09:49:21;99986.13;;;15.84;53.61
19286;BME280;9776;50.798;6.430;2023-03-19T09:51:51;99998.56;;;15.77;54.10
19286;BME280;9776;50.798;6.430;2023-03-19T09:54:26;99994.56;;;15.67;54.03
19286;BME280;9776;50.798;6.430;2023-03-19T09:56:53;99999.94;;;15.73;54.23
19286;BME280;9776;50.798;6.430;2023-03-19T09:59:23;99994.75;;;15.86;53.66
19286;BME280;9776;50.798;6.430;2023-03-19T10:01:57;100003.53;;;16.08;53.84
19286;BME280;9776;50.798;6.430;2023-03-19T10:04:41;100009.97;;;16.20;53.90
19286;BME280;9776;50.798;6.430;2023-03-19T10:07:22;100006.97;;;16.30;53.81
19286;BME280;9776;50.798;6.430;2023-03-19T10:10:15;100010.06;;;16.33;54.49
19286;BME280;9776;50.798;6.430;2023-03-19T10:12:54;100018.50;;;16.37;54.76
19286;BME280;9776;50.798;6.430;2023-03-19T10:15:27;100012.00;;;16.46;55.23
19286;BME280;9776;50.798;6.430;2023-03-19T10:17:59;100011.97;;;16.67;54.97
19286;BME280;9776;50.798;6.430;2023-03-19T10:20:35;100012.69;;;16.82;54.85
19286;BME280;9776;50.798;6.430;2023-03-19T10:23:19;100013.41;;;17.11;54.43
19286;BME280;9776;50.798;6.430;2023-03-19T10:25:51;100010.88;;;17.50;53.95
19286;BME280;9776;50.798;6.430;2023-03-19T10:28:21;100012.97;;;17.61;53.61
19286;BME280;9776;50.798;6.430;2023-03-19T10:30:52;100007.06;;;17.85;53.21
19286;BME280;9776;50.798;6.430;2023-03-19T10:33:23;100015.50;;;18.15;52.51
19286;BME280;9776;50.798;6.430;2023-03-19T10:35:56;100006.66;;;18.41;51.73
19286;BME280;9776;50.798;6.430;2023-03-19T10:38:25;100009.31;;;18.54;51.57
19286;BME280;9776;50.798;6.430;2023-03-19T10:41:14;100010.50;;;18.78;51.10
19286;BME280;9776;50.798;6.430;2023-03-19T10:43:49;100015.66;;;19.30;49.98
19286;BME280;9776;50.798;6.430;2023-03-19T10:46:17;100004.00;;;19.87;48.34
19286;BME280;9776;50.798;6.430;2023-03-19T10:48:45;100005.66;;;19.88;47.69
19286;BME280;9776;50.798;6.430;2023-03-19T10:51:14;100011.31;;;19.73;47.49
19286;BME280;9776;50.798;6.430;2023-03-19T10:53:42;100010.75;;;19.20;48.21
19286;BME280;9776;50.798;6.430;2023-03-19T10:56:17;100010.75;;;18.56;48.95
19286;BME280;9776;50.798;6.430;2023-03-19T10:58:56;100014.06;;;18.32;49.67
19286;BME280;9776;50.798;6.430;2023-03-19T11:01:27;100016.69;;;18.39;49.74
19286;BME280;9776;50.798;6.430;2023-03-19T11:03:55;100014.25;;;18.44;49.38
19286;BME280;9776;50.798;6.430;2023-03-19T11:06:25;100017.13;;;18.23;49.73
19286;BME280;9776;50.798;6.430;2023-03-19T11:08:55;100021.47;;;18.24;49.64
19286;BME280;9776;50.798;6.430;2023-03-19T11:11:31;100015.50;;;18.35;48.94
19286;BME280;9776;50.798;6.430;2023-03-19T11:14:05;100013.44;;;18.50;48.44
19286;BME280;9776;50.798;6.430;2023-03-19T11:16:45;100012.41;;;19.21;47.28
19286;BME280;9776;50.798;6.430;2023-03-19T11:19:18;100014.00;;;21.57;42.45
19286;BME280;9776;50.798;6.430;2023-03-19T11:21:59;100011.50;;;22.84;39.65
19286;BME280;9776;50.798;6.430;2023-03-19T11:24:26;100008.97;;;25.17;36.17
19286;BME280;9776;50.798;6.430;2023-03-19T11:26:54;100006.22;;;26.51;34.04
19286;BME280;9776;50.798;6.430;2023-03-19T11:29:21;100005.78;;;26.27;33.81
19286;BME280;9776;50.798;6.430;2023-03-19T11:31:50;99997.53;;;25.32;35.09
19286;BME280;9776;50.798;6.430;2023-03-19T11:34:27;100010.72;;;24.30;36.43
19286;BME280;9776;50.798;6.430;2023-03-19T11:37:08;99994.03;;;23.38;37.82
19286;BME280;9776;50.798;6.430;2023-03-19T11:39:45;99998.28;;;22.83;38.99
19286;BME280;9776;50.798;6.430;2023-03-19T11:42:36;99991.72;;;22.32;39.23
19286;BME280;9776;50.798;6.430;2023-03-19T11:45:16;99990.31;;;21.95;39.56
19286;BME280;9776;50.798;6.430;2023-03-19T11:47:50;99986.94;;;21.70;39.92
19286;BME280;9776;50.798;6.430;2023-03-19T11:50:25;99997.47;;;21.41;40.46
19286;BME280;9776;50.798;6.430;2023-03-19T11:53:02;99996.09;;;21.03;40.71
19286;BME280;9776;50.798;6.430;2023-03-19T11:55:33;99993.88;;;20.63;41.49
19286;BME280;9776;50.798;6.430;2023-03-19T11:58:25;99998.44;;;19.57;43.07
19286;BME280;9776;50.798;6.430;2023-03-19T12:00:56;99991.13;;;18.95;44.58
19286;BME280;9776;50.798;6.430;2023-03-19T12:03:41;99983.59;;;18.66;45.04
19286;BME280;9776;50.798;6.430;2023-03-19T12:06:23;99986.03;;;18.67;45.20
19286;BME280;9776;50.798;6.430;2023-03-19T12:08:58;99987.09;;;18.53;45.66
19286;BME280;9776;50.798;6.430;2023-03-19T12:11:35;99982.38;;;18.42;46.05
19286;BME280;9776;50.798;6.430;2023-03-19T12:14:16;99983.44;;;18.28;46.18
19286;BME280;9776;50.798;6.430;2023-03-19T12:17:07;99992.09;;;17.97;46.61
19286;BME280;9776;50.798;6.430;2023-03-19T12:19:54;99995.34;;;17.73;47.19
19286;BME280;9776;50.798;6.430;2023-03-19T12:22:39;99991.63;;;17.68;46.83
19286;BME280;9776;50.798;6.430;2023-03-19T12:25:28;99997.34;;;17.58;46.49
19286;BME280;9776;50.798;6.430;2023-03-19T12:28:02;100000.28;;;17.83;46.38
19286;BME280;9776;50.798;6.430;2023-03-19T12:30:38;99998.22;;;18.04;45.65
19286;BME280;9776;50.798;6.430;2023-03-19T12:33:17;99995.97;;;18.21;45.20
19286;BME280;9776;50.798;6.430;2023-03-19T12:35:49;99995.75;;;18.42;44.98
19286;BME280;9776;50.798;6.430;2023-03-19T12:38:22;100003.56;;;18.63;44.57
19286;BME280;9776;50.798;6.430;2023-03-19T12:40:55;100005.09;;;18.91;44.02
19286;BME280;9776;50.798;6.430;2023-03-19T12:43:28;99996.56;;;19.20;43.47
19286;BME280;9776;50.798;6.430;2023-03-19T12:46:01;99994.00;;;19.45;42.91
19286;BME280;9776;50.798;6.430;2023-03-19T12:48:36;100000.91;;;19.59;42.59
19286;BME280;9776;50.798;6.430;2023-03-19T12:51:08;99997.44;;;19.52;42.61
19286;BME280;9776;50.798;6.430;2023-03-19T12:53:44;99993.41;;;19.36;42.73
19286;BME280;9776;50.798;6.430;2023-03-19T12:56:17;100003.81;;;19.06;43.31
19286;BME280;9776;50.798;6.430;2023-03-19T12:58:52;99999.22;;;18.69;43.51
19286;BME280;9776;50.798;6.430;2023-03-19T13:01:24;99997.81;;;18.34;44.10
19286;BME280;9776;50.798;6.430;2023-03-19T13:03:55;99995.34;;;18.12;44.78
19286;BME280;9776;50.798;6.430;2023-03-19T13:06:27;100000.28;;;17.96;45.05
19286;BME280;9776;50.798;6.430;2023-03-19T13:09:02;99999.88;;;17.79;45.96
19286;BME280;9776;50.798;6.430;2023-03-19T13:11:36;100003.53;;;17.58;46.91
19286;BME280;9776;50.798;6.430;2023-03-19T13:14:10;100007.97;;;17.38;47.73
19286;BME280;9776;50.798;6.430;2023-03-19T13:16:42;100004.00;;;17.21;48.12
19286;BME280;9776;50.798;6.430;2023-03-19T13:19:17;100002.75;;;17.17;48.53
19286;BME280;9776;50.798;6.430;2023-03-19T13:21:48;100005.25;;;17.19;48.78
19286;BME280;9776;50.798;6.430;2023-03-19T13:24:20;100009.34;;;17.21;49.21